Iranshahr, Iran
Current Conditions -  °F | °C
As of 12:00 PM on Sunday 26 Oct 2014 (Local Time) from OIZI Reporting Station
Few Clouds Few Clouds  
Wind Chill: 91°   Ceiling: Unl
Heat Index: 91°   Visibility: 6mi
Dew Point: 39°   Wind: 7mph
Humidity: 16%   Direction: 210°SSW
Pressure: 29.97"   Gusts: NA
Location:  27.21°N, 60.69°E
Report Text: OIZI 260900Z 21006KT 9999 FEW045 33/04 Q1015
Loading
Personal Weather Stations






























Interactive Weather Map New forecast layout! Learn more

10-Day Weather Forecast

Advertisements
Track Severe Weather on mobile